Time;durP1;ratioP1;P1;durP2;ratioP2;P2;SDS_P1;SDS_P2;PMS_P1;PMS_P2;Temp;Humidity;BMP_temperature;BMP_pressure;BME280_temperature;BME280_humidity;BME280_pressure;Samples;Min_cycle;Max_cycle;Signal;HPM_P1;HPM_P2
2022/07/03 00:02:09;;;;;;;6.15;3.38;;;19.60;97.80;;;;;;5049679;28;20048;-72
2022/07/03 00:04:34;;;;;;;3.35;3.05;;;19.60;97.90;;;;;;5033824;28;20029;-73
2022/07/03 00:07:00;;;;;;;3.20;2.95;;;19.50;98.00;;;;;;5043752;28;20036;-73
2022/07/03 00:09:26;;;;;;;3.22;3.03;;;19.50;98.10;;;;;;5050243;28;20040;-71
2022/07/03 00:11:52;;;;;;;3.60;3.30;;;19.60;98.10;;;;;;5028841;28;20123;-73
2022/07/03 00:14:18;;;;;;;5.22;3.22;;;19.60;98.20;;;;;;5041930;28;20024;-73
2022/07/03 00:16:44;;;;;;;4.20;3.63;;;19.50;98.30;;;;;;5049504;28;20469;-66
2022/07/03 00:19:09;;;;;;;3.97;2.80;;;19.60;98.50;;;;;;5049617;28;20039;-73
2022/07/03 00:21:43;;;;;;;3.13;2.83;;;19.50;98.60;;;;;;5053685;28;20025;-72
2022/07/03 00:24:19;;;;;;;5.28;3.60;;;19.50;98.50;;;;;;5053268;28;20032;-72
2022/07/03 00:26:47;;;;;;;3.72;3.40;;;19.60;98.30;;;;;;5055291;28;20077;-73
2022/07/03 00:29:15;;;;;;;3.28;2.97;;;19.60;98.40;;;;;;5049155;28;20506;-73
2022/07/03 00:31:42;;;;;;;4.38;2.88;;;19.60;98.40;;;;;;5049918;28;20032;-71
2022/07/03 00:34:11;;;;;;;4.35;3.08;;;19.60;98.30;;;;;;5054740;28;20025;-71
2022/07/03 00:36:38;;;;;;;3.70;3.35;;;19.50;98.50;;;;;;5058971;28;20017;-71
2022/07/03 00:39:05;;;;;;;5.13;3.40;;;19.40;98.90;;;;;;5059405;28;20084;-71
2022/07/03 00:41:33;;;;;;;3.90;3.60;;;19.40;98.90;;;;;;5054147;28;20551;-71
2022/07/03 00:43:59;;;;;;;3.30;3.10;;;19.30;98.90;;;;;;5049653;28;20073;-71
2022/07/03 00:46:26;;;;;;;3.50;3.22;;;19.20;99.10;;;;;;5058092;28;20469;-71
2022/07/03 00:48:55;;;;;;;4.18;3.80;;;19.20;99.20;;;;;;5051719;28;20024;-73
2022/07/03 00:51:23;;;;;;;4.60;2.97;;;19.10;99.50;;;;;;5054301;28;20120;-71
2022/07/03 00:53:51;;;;;;;3.65;3.20;;;19.00;99.80;;;;;;5036637;28;20029;-71
2022/07/03 00:56:22;;;;;;;3.47;3.20;;;19.00;99.90;;;;;;5053734;28;20047;-70
2022/07/03 00:58:49;;;;;;;4.00;3.22;;;19.10;99.80;;;;;;5050360;28;20064;-71
2022/07/03 01:01:17;;;;;;;3.55;3.22;;;19.10;99.70;;;;;;5049788;28;20064;-71
2022/07/03 01:03:45;;;;;;;3.80;3.40;;;19.10;99.80;;;;;;5048409;28;20052;-71
2022/07/03 01:06:14;;;;;;;3.40;3.10;;;19.00;99.90;;;;;;5051132;28;20043;-71
2022/07/03 01:08:51;;;;;;;3.90;3.50;;;19.00;99.90;;;;;;5053088;28;20036;-73
2022/07/03 01:11:32;;;;;;;3.63;3.15;;;18.90;99.90;;;;;;5053463;28;20045;-71
2022/07/03 01:14:15;;;;;;;3.47;3.17;;;18.90;99.90;;;;;;5049832;28;20102;-71
2022/07/03 01:17:06;;;;;;;4.03;3.47;;;18.80;99.90;;;;;;5051112;28;20029;-71
2022/07/03 01:19:43;;;;;;;3.53;3.22;;;18.80;99.90;;;;;;5054085;28;20059;-71
2022/07/03 01:22:35;;;;;;;3.67;3.38;;;18.70;99.90;;;;;;5056228;28;23189;-70
2022/07/03 01:25:28;;;;;;;3.45;3.15;;;18.70;99.90;;;;;;5049946;28;20051;-71
2022/07/03 01:28:15;;;;;;;3.60;3.30;;;18.70;99.90;;;;;;5054491;28;20041;-71
2022/07/03 01:30:48;;;;;;;3.80;3.50;;;18.60;99.90;;;;;;5053665;28;20040;-72
2022/07/03 01:33:21;;;;;;;4.30;3.90;;;18.50;99.90;;;;;;5055317;28;20520;-72
2022/07/03 01:35:56;;;;;;;4.50;4.10;;;18.60;99.90;;;;;;5050967;28;20038;-72
2022/07/03 01:38:22;;;;;;;3.53;3.20;;;18.60;99.90;;;;;;5052157;28;20048;-72
2022/07/03 01:40:50;;;;;;;4.70;3.70;;;18.60;99.90;;;;;;5047814;28;20021;-72
2022/07/03 01:43:24;;;;;;;3.88;3.33;;;18.60;99.90;;;;;;5056741;28;20031;-72
2022/07/03 01:45:50;;;;;;;5.80;3.67;;;18.50;99.90;;;;;;5051695;28;20186;-70
2022/07/03 01:48:17;;;;;;;5.25;3.45;;;18.40;99.90;;;;;;5051508;28;20019;-73
2022/07/03 01:50:43;;;;;;;5.55;3.63;;;18.30;99.90;;;;;;5049745;28;20127;-72
2022/07/03 01:53:10;;;;;;;5.60;3.80;;;18.30;99.90;;;;;;5049262;28;20128;-72
2022/07/03 01:55:39;;;;;;;4.65;4.25;;;18.30;99.90;;;;;;5051611;28;20036;-72
2022/07/03 01:58:05;;;;;;;4.10;3.72;;;18.20;99.90;;;;;;5050552;28;20347;-72
2022/07/03 02:00:37;;;;;;;5.90;3.53;;;18.20;99.90;;;;;;5047643;28;20024;-72
2022/07/03 02:03:06;;;;;;;;;;;18.20;99.90;;;;;;5048525;28;20029;-72
2022/07/03 02:05:46;;;;;;;3.92;3.55;;;18.20;99.90;;;;;;5037490;28;19912;-72
2022/07/03 02:08:33;;;;;;;3.78;3.47;;;18.20;99.90;;;;;;5046324;28;20025;-70
2022/07/03 02:11:10;;;;;;;3.70;3.40;;;18.20;99.90;;;;;;5048657;28;20781;-70
2022/07/03 02:14:15;;;;;;;5.03;4.25;;;18.20;99.90;;;;;;5050262;28;20033;-70
2022/07/03 02:16:45;;;;;;;4.72;3.95;;;18.10;99.90;;;;;;5023694;28;20044;-70
2022/07/03 02:19:14;;;;;;;4.75;4.25;;;18.10;99.90;;;;;;5047141;28;20025;-70
2022/07/03 02:21:54;;;;;;;4.05;3.63;;;18.10;99.90;;;;;;5038976;28;22059;-70
2022/07/03 02:24:22;;;;;;;4.10;3.53;;;18.20;99.90;;;;;;5047247;28;20025;-70
2022/07/03 02:27:05;;;;;;;10.45;4.20;;;18.10;99.90;;;;;;5049438;28;20033;-72
2022/07/03 02:29:41;;;;;;;6.82;4.10;;;18.00;99.90;;;;;;5046873;28;20484;-73
2022/07/03 02:32:12;;;;;;;7.97;4.32;;;18.00;99.90;;;;;;5042534;28;20064;-72
2022/07/03 02:34:42;;;;;;;4.68;4.25;;;17.90;99.90;;;;;;5046256;28;20056;-72
2022/07/03 02:37:14;;;;;;;5.43;3.50;;;18.00;99.90;;;;;;5047261;28;20132;-72
2022/07/03 02:40:05;;;;;;;4.80;4.30;;;18.00;99.90;;;;;;5047800;28;20075;-72
2022/07/03 02:42:50;;;;;;;4.28;3.90;;;18.00;99.90;;;;;;5048241;28;20040;-71
2022/07/03 02:45:19;;;;;;;6.25;4.00;;;18.10;99.90;;;;;;5046241;28;20036;-72
2022/07/03 02:48:06;;;;;;;7.15;4.32;;;18.00;99.90;;;;;;5049859;28;20134;-72
2022/07/03 02:50:35;;;;;;;4.50;4.10;;;17.90;99.90;;;;;;5049193;28;20060;-72
2022/07/03 02:53:14;;;;;;;4.75;4.35;;;17.90;99.90;;;;;;5044470;28;20115;-72
2022/07/03 02:55:45;;;;;;;6.07;4.45;;;17.80;99.90;;;;;;5050045;28;20040;-72
2022/07/03 02:58:29;;;;;;;4.20;3.80;;;17.80;99.90;;;;;;5054879;28;20040;-72
2022/07/03 03:01:06;;;;;;;5.43;3.85;;;17.80;99.90;;;;;;5050486;28;20052;-72
2022/07/03 03:03:32;;;;;;;6.43;4.07;;;17.90;99.90;;;;;;5054826;28;20033;-71
2022/07/03 03:06:12;;;;;;;5.63;4.00;;;17.80;99.90;;;;;;5047444;28;21853;-70
2022/07/03 03:09:02;;;;;;;6.72;4.00;;;17.70;99.90;;;;;;5048741;28;20028;-70
2022/07/03 03:11:47;;;;;;;4.75;4.22;;;17.70;99.90;;;;;;5051487;28;20065;-70
2022/07/03 03:14:19;;;;;;;4.38;3.97;;;17.70;99.90;;;;;;5047934;28;20033;-71
2022/07/03 03:16:52;;;;;;;4.28;3.88;;;17.70;99.90;;;;;;5048114;28;20965;-70
2022/07/03 03:19:22;;;;;;;5.00;4.15;;;17.70;99.90;;;;;;5058890;28;20159;-70
2022/07/03 03:22:06;;;;;;;6.13;4.28;;;17.70;99.90;;;;;;5051356;28;20029;-70
2022/07/03 03:24:33;;;;;;;6.70;4.03;;;17.70;99.90;;;;;;5051149;28;20443;-72
2022/07/03 03:27:00;;;;;;;3.88;3.58;;;17.80;99.90;;;;;;5055121;28;20553;-72
2022/07/03 03:29:27;;;;;;;4.70;4.30;;;17.90;99.90;;;;;;5052627;28;20549;-72
2022/07/03 03:31:52;;;;;;;4.55;4.15;;;17.90;99.90;;;;;;5034682;28;20024;-72
2022/07/03 03:34:20;;;;;;;4.60;4.07;;;18.00;99.90;;;;;;5049758;28;20586;-72
2022/07/03 03:36:45;;;;;;;4.80;4.15;;;18.00;99.90;;;;;;5046363;28;20107;-72
2022/07/03 03:39:12;;;;;;;4.50;4.10;;;18.10;99.90;;;;;;5018341;28;20045;-72
2022/07/03 03:41:38;;;;;;;7.40;4.70;;;18.10;99.90;;;;;;5032534;28;20037;-72
2022/07/03 03:44:04;;;;;;;9.30;4.60;;;18.00;99.90;;;;;;5036501;28;20068;-70
2022/07/03 03:46:29;;;;;;;4.20;3.80;;;17.90;99.90;;;;;;5027933;28;20545;-71
2022/07/03 03:48:56;;;;;;;5.72;4.60;;;17.90;99.90;;;;;;5048899;28;20140;-71
2022/07/03 03:51:22;;;;;;;4.95;4.40;;;17.90;99.90;;;;;;5031050;28;20306;-70
2022/07/03 03:53:48;;;;;;;5.10;4.60;;;17.80;99.90;;;;;;5030476;28;20446;-70
2022/07/03 03:56:16;;;;;;;5.00;4.60;;;17.80;99.90;;;;;;5028207;28;20566;-70
2022/07/03 03:58:43;;;;;;;6.15;4.80;;;17.90;99.90;;;;;;5030392;28;20034;-70
2022/07/03 04:01:11;;;;;;;4.97;4.47;;;18.00;99.90;;;;;;5029508;28;20064;-72
2022/07/03 04:03:38;;;;;;;5.95;4.53;;;18.10;99.90;;;;;;5028620;28;20116;-72
2022/07/03 04:06:04;;;;;;;5.10;4.60;;;18.20;99.90;;;;;;5031331;28;20124;-71
2022/07/03 04:08:31;;;;;;;6.28;4.32;;;18.30;99.90;;;;;;5024880;28;21187;-71
2022/07/03 04:10:57;;;;;;;5.45;4.80;;;18.40;99.90;;;;;;5031368;28;20592;-72
2022/07/03 04:13:23;;;;;;;6.07;4.95;;;18.60;99.90;;;;;;5029205;28;20079;-72
2022/07/03 04:15:50;;;;;;;4.97;4.57;;;18.80;99.90;;;;;;5026585;28;20041;-72
2022/07/03 04:18:16;;;;;;;5.05;4.65;;;19.00;99.90;;;;;;5031850;28;20027;-72
2022/07/03 04:20:42;;;;;;;5.28;4.80;;;19.10;99.90;;;;;;5032195;28;20029;-70
2022/07/03 04:23:08;;;;;;;5.82;4.78;;;19.10;99.90;;;;;;5028480;28;20032;-71
2022/07/03 04:25:33;;;;;;;5.50;5.00;;;19.10;99.90;;;;;;5028796;28;20092;-71
2022/07/03 04:27:59;;;;;;;5.32;4.82;;;19.20;99.90;;;;;;5031485;28;20041;-71
2022/07/03 04:30:25;;;;;;;8.30;5.30;;;19.30;99.90;;;;;;5028429;28;20037;-71
2022/07/03 04:32:52;;;;;;;8.75;4.70;;;19.40;99.90;;;;;;5031499;28;20044;-71
2022/07/03 04:35:17;;;;;;;13.57;5.30;;;19.50;99.90;;;;;;5029208;28;20037;-71
2022/07/03 04:37:44;;;;;;;5.93;5.18;;;19.50;99.90;;;;;;5032432;28;20048;-71
2022/07/03 04:40:10;;;;;;;6.60;5.32;;;19.70;99.90;;;;;;5046669;28;20121;-71
2022/07/03 04:42:36;;;;;;;5.70;5.20;;;19.80;99.90;;;;;;5052187;28;20021;-71
2022/07/03 04:45:03;;;;;;;30.70;6.53;;;20.00;99.90;;;;;;5050024;28;20040;-71
2022/07/03 04:47:28;;;;;;;7.32;5.70;;;20.10;99.90;;;;;;5050553;28;20028;-71
2022/07/03 04:49:54;;;;;;;6.50;5.03;;;20.20;99.90;;;;;;5047817;28;20036;-71
2022/07/03 04:52:19;;;;;;;6.05;5.30;;;20.30;99.90;;;;;;5053455;28;20443;-71
2022/07/03 04:54:45;;;;;;;7.10;5.78;;;20.40;99.90;;;;;;5047396;28;20028;-70
2022/07/03 04:57:11;;;;;;;6.35;5.75;;;20.60;99.90;;;;;;5045845;28;20025;-71
2022/07/03 04:59:36;;;;;;;5.78;5.10;;;20.60;99.90;;;;;;5047693;28;20829;-73
2022/07/03 05:02:02;;;;;;;6.40;5.75;;;20.70;99.90;;;;;;5045915;28;21385;-73
2022/07/03 05:04:28;;;;;;;6.90;5.38;;;20.80;99.90;;;;;;5051235;28;20025;-72
2022/07/03 05:06:54;;;;;;;8.15;5.43;;;20.90;99.90;;;;;;5050456;28;20048;-73
2022/07/03 05:09:19;;;;;;;5.40;4.90;;;21.00;99.90;;;;;;5053916;28;20033;-73
2022/07/03 05:11:45;;;;;;;6.80;5.40;;;21.10;99.90;;;;;;5034168;28;20024;-73
2022/07/03 05:14:11;;;;;;;5.60;5.10;;;21.20;99.90;;;;;;5051187;28;20039;-73
2022/07/03 05:16:37;;;;;;;6.45;5.53;;;21.40;99.90;;;;;;5044036;28;20388;-73
2022/07/03 05:19:03;;;;;;;6.93;4.97;;;21.50;99.90;;;;;;5055310;28;20461;-70
2022/07/03 05:21:28;;;;;;;13.40;5.60;;;21.60;99.90;;;;;;5050361;28;20024;-71
2022/07/03 05:23:54;;;;;;;5.75;5.20;;;21.60;99.90;;;;;;5051730;28;20099;-71
2022/07/03 05:26:20;;;;;;;5.53;5.03;;;21.70;99.90;;;;;;5052920;28;20159;-71
2022/07/03 05:28:46;;;;;;;21.40;7.75;;;21.80;99.90;;;;;;5053683;28;20521;-70
2022/07/03 05:31:12;;;;;;;9.30;5.30;;;21.90;99.90;;;;;;5050753;28;20046;-71
2022/07/03 05:33:37;;;;;;;5.53;5.03;;;22.00;99.90;;;;;;5050573;28;20104;-71
2022/07/03 05:36:03;;;;;;;5.95;5.25;;;22.10;99.90;;;;;;5052540;28;20067;-70
2022/07/03 05:41:14;;;;;;;5.32;4.82;;;22.30;99.90;;;;;;5052530;28;20126;-74
2022/07/03 05:43:40;;;;;;;7.28;5.28;;;22.40;99.90;;;;;;5051948;28;20108;-73
2022/07/03 05:46:05;;;;;;;5.68;4.80;;;22.40;99.80;;;;;;5032310;28;20123;-74
2022/07/03 05:48:31;;;;;;;5.97;5.40;;;22.50;99.60;;;;;;5054787;28;20029;-74
2022/07/03 05:50:57;;;;;;;5.47;4.93;;;22.60;99.90;;;;;;5047157;28;20052;-74
2022/07/03 05:53:23;;;;;;;5.70;5.25;;;22.70;99.90;;;;;;5050627;28;20476;-73
2022/07/03 05:55:49;;;;;;;4.85;4.45;;;22.70;99.80;;;;;;5050414;28;20025;-70
2022/07/03 05:58:15;;;;;;;5.60;5.07;;;22.80;99.20;;;;;;5048859;28;20037;-70
2022/07/03 06:00:41;;;;;;;6.53;5.38;;;22.90;99.30;;;;;;5042443;28;20067;-72
2022/07/03 06:03:07;;;;;;;5.85;5.35;;;23.00;98.70;;;;;;5049092;28;20033;-72
2022/07/03 06:05:32;;;;;;;6.63;5.20;;;23.00;99.30;;;;;;5047457;28;20033;-71
2022/07/03 06:07:58;;;;;;;8.73;5.03;;;23.00;98.90;;;;;;5045385;28;20104;-71
2022/07/03 06:10:25;;;;;;;7.82;5.22;;;23.10;99.00;;;;;;5046854;28;20734;-71
2022/07/03 06:12:50;;;;;;;5.43;4.93;;;23.20;98.50;;;;;;5033162;28;20512;-71
2022/07/03 06:15:16;;;;;;;5.38;4.97;;;23.40;98.90;;;;;;5048179;28;20033;-73
2022/07/03 06:17:43;;;;;;;5.30;4.80;;;23.40;99.10;;;;;;5047768;28;20119;-73
2022/07/03 06:20:10;;;;;;;5.22;4.82;;;23.50;98.20;;;;;;5044446;28;20482;-73
2022/07/03 06:22:37;;;;;;;5.63;5.07;;;23.60;98.30;;;;;;5035791;28;20485;-73
2022/07/03 06:25:03;;;;;;;6.03;5.43;;;23.70;98.00;;;;;;5035068;28;20049;-73
2022/07/03 06:27:29;;;;;;;7.75;5.22;;;23.70;96.80;;;;;;5056410;28;20029;-73
2022/07/03 06:29:54;;;;;;;6.20;5.60;;;23.70;97.00;;;;;;5052623;28;20040;-72
2022/07/03 06:32:20;;;;;;;7.53;5.03;;;23.70;97.30;;;;;;5054825;28;20032;-72
2022/07/03 06:34:46;;;;;;;10.00;5.55;;;23.70;98.30;;;;;;5051650;28;20508;-72
2022/07/03 06:37:12;;;;;;;4.82;4.43;;;23.80;98.20;;;;;;5053296;28;20060;-72
2022/07/03 06:39:38;;;;;;;5.65;4.53;;;23.90;97.50;;;;;;5052925;28;20140;-72
2022/07/03 06:42:04;;;;;;;5.68;5.18;;;24.10;97.00;;;;;;5052599;28;20033;-72
2022/07/03 06:44:30;;;;;;;5.47;4.97;;;24.20;96.50;;;;;;5053002;28;20453;-72
2022/07/03 06:46:56;;;;;;;5.50;5.00;;;24.30;96.20;;;;;;5051083;28;20389;-72
2022/07/03 06:49:23;;;;;;;6.80;5.53;;;24.40;96.30;;;;;;5056005;28;20035;-72
2022/07/03 06:51:49;;;;;;;5.20;4.70;;;24.50;96.50;;;;;;5053619;28;20051;-72
2022/07/03 06:54:15;;;;;;;4.72;4.30;;;24.70;96.00;;;;;;5053572;28;20033;-73
2022/07/03 06:56:42;;;;;;;5.00;4.32;;;24.70;95.50;;;;;;5052553;28;20039;-73
2022/07/03 06:59:08;;;;;;;5.93;5.32;;;24.90;95.70;;;;;;5032244;28;20119;-73
2022/07/03 07:01:33;;;;;;;11.43;5.55;;;24.90;95.10;;;;;;5047373;28;20058;-73
2022/07/03 07:03:59;;;;;;;9.10;4.60;;;24.90;95.00;;;;;;5053396;28;20245;-73
2022/07/03 07:06:25;;;;;;;5.75;4.47;;;24.90;95.40;;;;;;5050929;28;21889;-74
2022/07/03 07:08:50;;;;;;;4.55;4.15;;;24.90;95.20;;;;;;5053528;28;20036;-73
2022/07/03 07:11:16;;;;;;;5.07;4.60;;;25.00;95.00;;;;;;5041820;28;20096;-74
2022/07/03 07:13:42;;;;;;;5.43;4.93;;;25.10;95.70;;;;;;5054327;28;20148;-72
2022/07/03 07:16:08;;;;;;;5.30;4.85;;;25.30;94.80;;;;;;5049946;28;20050;-71
2022/07/03 07:18:34;;;;;;;5.45;4.72;;;25.30;94.80;;;;;;5056447;28;20492;-71
2022/07/03 07:21:00;;;;;;;5.05;4.65;;;25.30;94.70;;;;;;5049329;28;20119;-71
2022/07/03 07:23:25;;;;;;;5.40;4.90;;;25.40;94.90;;;;;;5051484;28;20035;-73
2022/07/03 07:25:51;;;;;;;13.00;4.65;;;25.50;94.50;;;;;;5050400;28;20082;-73
2022/07/03 07:28:17;;;;;;;4.78;4.38;;;25.50;94.10;;;;;;5052867;28;20132;-72
2022/07/03 07:30:43;;;;;;;6.80;4.63;;;25.50;93.90;;;;;;5053975;28;20036;-73
2022/07/03 07:33:09;;;;;;;4.28;3.97;;;25.50;93.80;;;;;;5051963;28;20533;-73
2022/07/03 07:35:35;;;;;;;5.00;4.60;;;25.60;94.10;;;;;;5050255;28;20036;-72
2022/07/03 07:38:01;;;;;;;5.63;4.28;;;25.70;93.40;;;;;;5052991;28;20068;-75
2022/07/03 07:40:26;;;;;;;4.15;3.75;;;25.80;94.00;;;;;;5052718;28;20040;-73
2022/07/03 07:42:52;;;;;;;5.80;4.60;;;25.90;93.50;;;;;;5030275;28;21091;-73
2022/07/03 07:45:18;;;;;;;4.95;4.53;;;26.00;93.40;;;;;;5053451;28;20413;-76
2022/07/03 07:47:43;;;;;;;4.50;4.10;;;26.10;93.00;;;;;;5052386;28;20162;-73
2022/07/03 07:50:09;;;;;;;5.40;4.60;;;26.10;92.80;;;;;;5054184;28;20033;-72
2022/07/03 07:52:35;;;;;;;6.53;4.63;;;26.20;93.20;;;;;;5047994;28;20032;-73
2022/07/03 07:55:01;;;;;;;4.05;3.75;;;26.30;92.90;;;;;;5050332;28;20036;-72
2022/07/03 07:57:37;;;;;;;5.45;4.70;;;26.40;92.60;;;;;;5055237;28;20036;-73
2022/07/03 08:00:26;;;;;;;6.82;4.25;;;26.50;92.70;;;;;;5052065;28;20117;-72
2022/07/03 08:05:36;;;;;;;4.57;4.18;;;26.50;91.70;;;;;;5051389;28;20496;-73
2022/07/03 08:08:11;;;;;;;4.32;4.00;;;26.40;91.70;;;;;;5051115;28;20033;-70
2022/07/03 08:10:45;;;;;;;4.05;3.75;;;26.40;92.50;;;;;;5045325;28;20044;-73
2022/07/03 08:13:13;;;;;;;4.88;4.10;;;26.50;92.00;;;;;;5045867;28;20035;-72
2022/07/03 08:15:40;;;;;;;4.80;4.40;;;26.70;92.10;;;;;;5051590;28;20029;-73
2022/07/03 08:18:06;;;;;;;4.65;4.25;;;26.80;92.00;;;;;;5050927;28;20024;-72
2022/07/03 08:20:32;;;;;;;4.43;4.03;;;26.90;91.30;;;;;;5055169;28;20098;-73
2022/07/03 08:22:58;;;;;;;4.80;4.40;;;26.90;91.60;;;;;;5056537;28;20082;-73
2022/07/03 08:25:25;;;;;;;4.10;3.70;;;26.90;91.00;;;;;;5049916;28;20047;-74
2022/07/03 08:27:51;;;;;;;4.57;4.18;;;26.90;90.60;;;;;;5059892;28;20040;-71
2022/07/03 08:30:17;;;;;;;4.10;3.80;;;26.90;91.10;;;;;;5030577;28;20049;-71
2022/07/03 08:32:48;;;;;;;4.82;4.05;;;27.00;91.00;;;;;;5052234;28;20020;-72
2022/07/03 08:35:14;;;;;;;5.70;3.53;;;27.00;91.50;;;;;;5045105;28;20033;-72
2022/07/03 08:37:43;;;;;;;3.85;3.22;;;27.00;91.30;;;;;;5019884;28;20390;-71
2022/07/03 08:40:16;;;;;;;4.53;4.13;;;27.00;91.60;;;;;;5009108;28;20152;-72
2022/07/03 08:43:03;;;;;;;4.25;3.85;;;27.10;90.30;;;;;;5015782;28;20052;-71
2022/07/03 08:45:30;;;;;;;4.28;3.88;;;27.10;90.30;;;;;;5011424;28;20025;-73
2022/07/03 08:47:58;;;;;;;4.70;4.05;;;27.20;90.00;;;;;;5022330;28;20042;-72
2022/07/03 08:50:25;;;;;;;3.78;3.47;;;27.20;89.90;;;;;;5013900;28;20053;-73
2022/07/03 08:52:51;;;;;;;6.22;3.53;;;27.20;90.20;;;;;;5016294;28;20099;-73
2022/07/03 08:55:18;;;;;;;3.90;3.45;;;27.20;90.70;;;;;;5014654;28;20745;-72
2022/07/03 08:57:46;;;;;;;4.40;3.72;;;27.30;88.30;;;;;;5009566;28;20026;-72
2022/07/03 09:00:14;;;;;;;4.10;3.80;;;27.20;88.60;;;;;;5013053;28;20033;-74
2022/07/03 09:02:43;;;;;;;4.18;3.78;;;27.20;90.20;;;;;;5012205;28;20420;-72
2022/07/03 09:05:14;;;;;;;4.22;3.85;;;27.30;89.40;;;;;;5015486;28;20783;-73
2022/07/03 09:07:41;;;;;;;8.35;4.07;;;27.30;88.80;;;;;;5018324;28;20041;-73
2022/07/03 09:10:09;;;;;;;4.47;3.80;;;27.40;88.50;;;;;;5012416;28;20036;-72
2022/07/03 09:12:35;;;;;;;6.07;3.42;;;27.50;89.80;;;;;;5014066;28;20026;-72
2022/07/03 09:15:03;;;;;;;3.78;3.47;;;27.60;86.10;;;;;;5014335;28;20512;-73
2022/07/03 09:17:29;;;;;;;4.55;3.78;;;27.60;87.20;;;;;;5011690;28;20025;-71
2022/07/03 09:19:57;;;;;;;3.65;3.35;;;27.70;85.40;;;;;;5005336;28;20430;-71
2022/07/03 09:22:28;;;;;;;3.10;2.90;;;27.70;83.80;;;;;;5015712;28;20111;-71
2022/07/03 09:25:09;;;;;;;5.50;3.55;;;27.70;83.50;;;;;;5006968;28;20042;-71
2022/07/03 09:27:36;;;;;;;4.00;3.33;;;27.80;82.90;;;;;;5008537;28;20036;-76
2022/07/03 09:30:06;;;;;;;3.28;2.97;;;28.00;82.50;;;;;;5007162;28;20053;-73
2022/07/03 09:32:43;;;;;;;3.15;2.95;;;28.10;80.50;;;;;;5010616;28;20038;-73
2022/07/03 09:35:21;;;;;;;3.00;2.80;;;28.10;78.70;;;;;;5001914;28;21082;-72
2022/07/03 09:38:01;;;;;;;4.93;2.92;;;28.00;78.40;;;;;;5012904;28;20179;-72
2022/07/03 09:40:47;;;;;;;3.00;2.80;;;28.00;78.70;;;;;;5048110;28;20512;-77
2022/07/03 09:43:12;;;;;;;3.15;2.88;;;28.10;78.60;;;;;;5050928;28;20056;-72
2022/07/03 09:45:59;;;;;;;2.80;2.55;;;28.20;76.90;;;;;;5058693;28;20522;-75
2022/07/03 09:48:35;;;;;;;2.80;2.08;;;28.30;76.00;;;;;;5053277;28;20267;-71
2022/07/03 09:51:14;;;;;;;2.95;2.50;;;28.30;72.50;;;;;;5048691;28;20596;-80
2022/07/03 09:53:51;;;;;;;2.55;2.33;;;28.30;70.10;;;;;;5051012;28;20119;-75
2022/07/03 09:56:19;;;;;;;2.58;2.20;;;28.30;72.80;;;;;;5053041;28;20028;-78
2022/07/03 09:59:08;;;;;;;3.17;2.63;;;28.30;71.10;;;;;;5046939;28;20409;-79
2022/07/03 10:01:35;;;;;;;2.72;2.53;;;28.30;73.00;;;;;;5056500;28;20071;-73
2022/07/03 10:04:19;;;;;;;4.28;2.63;;;28.50;73.10;;;;;;5056331;28;20115;-73
2022/07/03 10:07:00;;;;;;;3.17;2.85;;;28.60;73.50;;;;;;5052042;28;20555;-73
2022/07/03 10:09:34;;;;;;;3.35;2.80;;;28.70;73.60;;;;;;5051546;28;20054;-73
2022/07/03 10:12:02;;;;;;;2.95;2.70;;;28.70;72.40;;;;;;5056406;28;20489;-72
2022/07/03 10:14:30;;;;;;;4.32;2.75;;;28.70;73.10;;;;;;5048508;28;20033;-72
2022/07/03 10:16:57;;;;;;;3.00;2.80;;;28.80;73.30;;;;;;5043083;28;20067;-74
2022/07/03 10:19:28;;;;;;;3.58;3.25;;;28.80;72.70;;;;;;5052906;28;20112;-76
2022/07/03 10:21:56;;;;;;;3.35;2.60;;;28.90;74.60;;;;;;5052483;28;20043;-77
2022/07/03 10:24:27;;;;;;;3.05;2.70;;;29.00;72.50;;;;;;5031806;28;20040;-74
2022/07/03 10:26:54;;;;;;;3.05;2.55;;;29.10;72.70;;;;;;5053556;28;20576;-74
2022/07/03 10:29:22;;;;;;;4.95;2.95;;;29.20;72.50;;;;;;5052024;28;20131;-76
2022/07/03 10:31:48;;;;;;;2.90;2.67;;;29.20;70.90;;;;;;5045843;28;21659;-72
2022/07/03 10:34:20;;;;;;;2.90;2.65;;;29.20;72.50;;;;;;5043534;28;20366;-72
2022/07/03 10:36:50;;;;;;;2.45;2.25;;;29.30;71.90;;;;;;5034981;28;20124;-72
2022/07/03 10:39:39;;;;;;;5.75;2.30;;;29.30;69.80;;;;;;5034377;28;20564;-71
2022/07/03 10:45:05;;;;;;;3.22;2.40;;;29.20;70.20;;;;;;5052112;28;20090;-72
2022/07/03 10:47:47;;;;;;;5.18;2.28;;;29.20;68.60;;;;;;5045022;28;20081;-71
2022/07/03 10:50:14;;;;;;;2.42;2.10;;;29.20;66.90;;;;;;5047167;28;20036;-70
2022/07/03 10:52:40;;;;;;;4.25;2.38;;;29.20;68.00;;;;;;5047477;28;20422;-69
2022/07/03 10:55:07;;;;;;;2.40;1.90;;;29.20;68.60;;;;;;5046166;28;20053;-69
2022/07/03 10:57:35;;;;;;;2.97;2.20;;;29.30;68.50;;;;;;5047996;28;20092;-69
2022/07/03 11:00:02;;;;;;;2.28;2.08;;;29.40;68.50;;;;;;5048033;28;20048;-68
2022/07/03 11:02:41;;;;;;;2.72;2.10;;;29.50;65.70;;;;;;5045304;28;20054;-69
2022/07/03 11:05:09;;;;;;;2.75;2.03;;;29.40;64.90;;;;;;5048023;28;20123;-67
2022/07/03 11:07:39;;;;;;;2.10;1.92;;;29.40;63.60;;;;;;5046854;28;20021;-67
2022/07/03 11:10:10;;;;;;;2.72;1.70;;;29.40;64.30;;;;;;5030039;28;20047;-66
2022/07/03 11:13:09;;;;;;;3.35;1.95;;;29.40;63.20;;;;;;5044021;28;20050;-65
2022/07/03 11:15:41;;;;;;;2.03;1.70;;;29.50;63.80;;;;;;5039168;28;20040;-65
2022/07/03 11:18:12;;;;;;;;;;;29.50;63.10;;;;;;5034681;28;21285;-64
2022/07/03 11:20:55;;;;;;;3.60;1.80;;;29.50;62.40;;;;;;5044119;28;20297;-64
2022/07/03 11:23:26;;;;;;;3.72;2.13;;;29.60;62.80;;;;;;5044033;28;20396;-64
2022/07/03 11:26:20;;;;;;;1.92;1.60;;;29.70;61.30;;;;;;5032962;28;20039;-64
2022/07/03 11:28:45;;;;;;;7.38;2.05;;;29.70;61.70;;;;;;5045882;28;20085;-63
2022/07/03 11:31:13;;;;;;;3.35;2.03;;;29.80;62.00;;;;;;5043095;28;20526;-63
2022/07/03 11:33:42;;;;;;;3.63;1.98;;;29.90;60.60;;;;;;5049223;28;20036;-63
2022/07/03 11:36:17;;;;;;;1.40;1.30;;;29.80;61.40;;;;;;5039310;28;20397;-63
2022/07/03 11:39:07;;;;;;;3.03;1.63;;;29.80;60.00;;;;;;5049068;28;20106;-70
2022/07/03 11:41:36;;;;;;;1.88;1.70;;;29.90;62.30;;;;;;5044975;28;20033;-70
2022/07/03 11:44:07;;;;;;;2.47;1.50;;;30.00;59.30;;;;;;5050663;28;20059;-70
2022/07/03 11:46:35;;;;;;;2.10;1.35;;;30.00;56.10;;;;;;5046835;28;20483;-69
2022/07/03 11:49:11;;;;;;;2.85;1.60;;;30.00;57.70;;;;;;5040456;28;20037;-74
2022/07/03 11:51:38;;;;;;;1.52;1.42;;;30.10;58.10;;;;;;5043552;28;20032;-70
2022/07/03 11:54:05;;;;;;;3.13;1.30;;;30.10;57.60;;;;;;5042863;28;20170;-76
2022/07/03 11:56:31;;;;;;;1.90;1.20;;;30.10;57.70;;;;;;5048101;28;20119;-72
2022/07/03 11:58:59;;;;;;;1.35;1.25;;;30.10;56.80;;;;;;5044139;28;20162;-73
2022/07/03 12:01:25;;;;;;;1.80;1.50;;;30.10;56.30;;;;;;5047437;28;20032;-71
2022/07/03 12:04:02;;;;;;;1.85;1.33;;;30.00;56.90;;;;;;5030150;28;20029;-70
2022/07/03 12:06:56;;;;;;;2.42;1.50;;;30.10;56.20;;;;;;5046573;28;20090;-72
2022/07/03 12:09:29;;;;;;;1.20;1.10;;;30.20;56.90;;;;;;5036389;28;20047;-71
2022/07/03 12:11:57;;;;;;;3.80;1.05;;;30.20;56.50;;;;;;5035014;28;20050;-72
2022/07/03 12:14:45;;;;;;;7.60;1.52;;;30.20;54.60;;;;;;5037910;28;20105;-72
2022/07/03 12:17:17;;;;;;;1.40;1.30;;;30.30;57.80;;;;;;5027065;28;20059;-74
2022/07/03 12:19:58;;;;;;;1.92;1.30;;;30.50;58.70;;;;;;5047377;28;20033;-74
2022/07/03 12:22:32;;;;;;;4.35;1.50;;;30.70;59.00;;;;;;5033292;28;20081;-73
2022/07/03 12:25:01;;;;;;;4.18;1.15;;;30.70;55.50;;;;;;5042580;28;20529;-79
2022/07/03 12:27:28;;;;;;;3.75;1.50;;;30.70;58.90;;;;;;5042843;28;20029;-71
2022/07/03 12:29:54;;;;;;;1.65;1.30;;;30.80;56.00;;;;;;5042442;28;20017;-72
2022/07/03 12:32:20;;;;;;;1.55;1.35;;;30.80;57.30;;;;;;5047587;28;20064;-72
2022/07/03 12:34:46;;;;;;;5.60;1.38;;;30.90;58.30;;;;;;5052402;28;20028;-73
2022/07/03 12:37:12;;;;;;;1.73;1.55;;;30.90;56.10;;;;;;5043897;28;20033;-71
2022/07/03 12:39:46;;;;;;;1.30;1.20;;;30.90;56.40;;;;;;5050223;28;20045;-74
2022/07/03 12:42:19;;;;;;;1.50;1.17;;;30.80;54.80;;;;;;5044734;28;20021;-72
2022/07/03 12:45:02;;;;;;;1.58;1.30;;;30.70;56.10;;;;;;5047719;28;20580;-71
2022/07/03 12:47:30;;;;;;;3.53;1.40;;;30.60;54.30;;;;;;5054832;28;20120;-71
2022/07/03 12:50:00;;;;;;;1.20;1.10;;;30.70;55.00;;;;;;5049059;28;20033;-72
2022/07/03 12:52:27;;;;;;;2.92;1.70;;;30.70;55.00;;;;;;5039426;28;20036;-70
2022/07/03 12:54:54;;;;;;;1.85;1.50;;;30.70;55.70;;;;;;5041791;28;20039;-71
2022/07/03 13:00:09;;;;;;;3.08;1.50;;;30.70;57.30;;;;;;5049251;28;20047;-74
2022/07/03 13:02:35;;;;;;;8.48;1.38;;;30.80;56.60;;;;;;5044918;28;20025;-74
2022/07/03 13:05:13;;;;;;;2.13;1.55;;;30.80;57.50;;;;;;5047791;28;20071;-72
2022/07/03 13:07:43;;;;;;;2.55;1.50;;;30.80;55.60;;;;;;5040212;28;20036;-70
2022/07/03 13:10:09;;;;;;;2.25;1.52;;;30.80;56.50;;;;;;5046555;28;20486;-72
2022/07/03 13:12:54;;;;;;;2.85;1.30;;;30.80;55.00;;;;;;5052800;28;20032;-71
2022/07/03 13:15:24;;;;;;;2.15;1.20;;;30.80;56.70;;;;;;5047545;28;20068;-73